Time;durP1;ratioP1;P1;durP2;ratioP2;P2;SDS_P1;SDS_P2;PMS_P1;PMS_P2;Temp;Humidity;BMP_temperature;BMP_pressure;BME280_temperature;BME280_humidity;BME280_pressure;Samples;Min_cycle;Max_cycle;Signal;HPM_P1;HPM_P2
2022/05/21 00:03:21;;;;;;;1.13;0.40;;;14.40;99.90;;;;;;10295324;28;20050;-57
2022/05/21 00:08:23;;;;;;;2.10;0.52;;;14.40;99.90;;;;;;10296104;28;20050;-57
2022/05/21 00:13:24;;;;;;;1.20;0.57;;;14.40;99.90;;;;;;10293600;28;20043;-58
2022/05/21 00:18:26;;;;;;;2.97;0.70;;;14.30;99.90;;;;;;10292348;28;20132;-59
2022/05/21 00:23:31;;;;;;;6.10;0.70;;;14.30;99.90;;;;;;10294220;28;20051;-57
2022/05/21 00:28:33;;;;;;;1.60;0.93;;;14.20;99.90;;;;;;10292639;28;20493;-58
2022/05/21 00:33:36;;;;;;;1.67;0.80;;;14.30;99.90;;;;;;10290707;28;20067;-58
2022/05/21 00:38:39;;;;;;;2.25;0.65;;;14.30;99.90;;;;;;10292647;28;20061;-58
2022/05/21 00:43:46;;;;;;;3.75;1.10;;;14.20;99.90;;;;;;10294268;28;20055;-58
2022/05/21 00:49:01;;;;;;;2.00;0.55;;;14.20;99.90;;;;;;10290828;28;20109;-57
2022/05/21 00:54:05;;;;;;;2.35;0.60;;;14.10;99.90;;;;;;10284414;28;20063;-58
2022/05/21 01:04:27;;;;;;;2.80;1.08;;;14.00;99.90;;;;;;10289523;28;22282;-58
2022/05/21 01:09:29;;;;;;;3.00;0.93;;;13.90;99.90;;;;;;10291853;28;20061;-57
2022/05/21 01:14:31;;;;;;;6.13;0.70;;;13.80;99.90;;;;;;10291747;28;20054;-58
2022/05/21 01:19:52;;;;;;;1.10;0.60;;;13.70;99.90;;;;;;10284428;28;20046;-58
2022/05/21 01:24:54;;;;;;;2.58;0.47;;;13.70;99.90;;;;;;10287048;28;20580;-58
2022/05/21 01:29:57;;;;;;;1.00;0.60;;;13.70;99.90;;;;;;10293353;28;20053;-58
2022/05/21 01:34:59;;;;;;;3.00;0.40;;;13.60;99.90;;;;;;10289612;28;20046;-58
2022/05/21 01:40:00;;;;;;;1.00;0.47;;;13.60;99.90;;;;;;10294270;28;20058;-58
2022/05/21 01:45:03;;;;;;;0.70;0.40;;;13.50;99.90;;;;;;10295116;28;20038;-59
2022/05/21 01:50:06;;;;;;;1.90;0.50;;;13.50;99.90;;;;;;10289797;28;20065;-57
2022/05/21 01:55:07;;;;;;;1.90;0.40;;;13.40;99.90;;;;;;10287079;28;20042;-58
2022/05/21 02:00:10;;;;;;;0.70;0.50;;;13.40;99.90;;;;;;10286188;28;20046;-57
2022/05/21 02:05:12;;;;;;;0.50;0.30;;;13.40;99.90;;;;;;10291337;28;20067;-59
2022/05/21 02:10:14;;;;;;;1.45;0.40;;;13.30;99.90;;;;;;10294666;28;20050;-57
2022/05/21 02:15:15;;;;;;;2.65;0.40;;;13.30;99.90;;;;;;10286787;28;20077;-57
2022/05/21 02:20:17;;;;;;;0.57;0.40;;;13.20;99.90;;;;;;10287737;28;20042;-58
2022/05/21 02:25:19;;;;;;;1.83;0.57;;;13.20;99.90;;;;;;10289142;28;20065;-59
2022/05/21 02:30:21;;;;;;;2.65;0.52;;;13.20;99.90;;;;;;10289860;28;20539;-60
2022/05/21 02:35:23;;;;;;;2.60;0.40;;;13.20;99.90;;;;;;10292476;28;20066;-58
2022/05/21 02:40:25;;;;;;;0.80;0.50;;;13.10;99.90;;;;;;10286483;28;20047;-57
2022/05/21 02:45:28;;;;;;;1.05;0.45;;;13.10;99.90;;;;;;10292945;28;20042;-57
2022/05/21 02:50:32;;;;;;;1.52;0.80;;;13.00;99.90;;;;;;10288319;28;20688;-58
2022/05/21 02:55:34;;;;;;;1.00;0.57;;;13.00;99.90;;;;;;10289030;28;20058;-58
2022/05/21 03:00:36;;;;;;;0.70;0.40;;;12.90;99.90;;;;;;10288709;28;20047;-57
2022/05/21 03:05:38;;;;;;;1.60;0.80;;;12.80;99.90;;;;;;10284261;28;20058;-60
2022/05/21 03:10:40;;;;;;;1.55;0.85;;;12.70;99.90;;;;;;10293382;28;20057;-59
2022/05/21 03:15:42;;;;;;;2.03;0.80;;;12.70;99.90;;;;;;10286094;28;20380;-58
2022/05/21 03:20:44;;;;;;;6.65;1.13;;;12.60;99.90;;;;;;10288150;28;20038;-58
2022/05/21 03:25:45;;;;;;;3.30;1.30;;;12.60;99.90;;;;;;10290699;28;20109;-59
2022/05/21 03:30:47;;;;;;;6.57;2.08;;;12.50;99.90;;;;;;10300581;28;20055;-60
2022/05/21 03:35:49;;;;;;;2.25;1.08;;;12.50;99.90;;;;;;10297913;28;20050;-60
2022/05/21 03:40:51;;;;;;;2.38;1.10;;;12.40;99.90;;;;;;10297111;28;20109;-60
2022/05/21 03:45:52;;;;;;;5.25;1.15;;;12.40;99.90;;;;;;10304688;28;20113;-60
2022/05/21 03:50:54;;;;;;;3.67;0.93;;;12.40;99.90;;;;;;10302598;28;20055;-60
2022/05/21 03:55:56;;;;;;;4.30;1.20;;;12.50;99.90;;;;;;10304623;28;20049;-61
2022/05/21 04:00:58;;;;;;;2.90;0.93;;;12.40;99.90;;;;;;10294305;28;20481;-60
2022/05/21 04:06:00;;;;;;;1.90;1.08;;;12.50;99.90;;;;;;10296001;28;20042;-60
2022/05/21 04:11:02;;;;;;;2.45;1.00;;;12.50;99.90;;;;;;10294920;28;20050;-60
2022/05/21 04:16:04;;;;;;;3.03;0.88;;;12.50;99.90;;;;;;10295246;28;20050;-61
2022/05/21 04:21:06;;;;;;;3.83;1.42;;;12.50;99.90;;;;;;10294004;28;20142;-59
2022/05/21 04:26:08;;;;;;;5.28;1.00;;;12.50;99.90;;;;;;10293286;28;20113;-59
2022/05/21 04:31:09;;;;;;;1.80;1.23;;;12.50;99.90;;;;;;10289780;28;20082;-60
2022/05/21 04:36:17;;;;;;;3.30;0.80;;;12.60;99.90;;;;;;10293776;28;20055;-60
2022/05/21 04:41:21;;;;;;;3.67;0.80;;;12.70;99.90;;;;;;10294930;28;20105;-60
2022/05/21 04:46:24;;;;;;;2.67;0.90;;;12.80;99.90;;;;;;10294826;28;20050;-58
2022/05/21 04:51:26;;;;;;;3.75;0.70;;;12.90;99.90;;;;;;10296847;28;20062;-59
2022/05/21 04:56:28;;;;;;;0.98;0.50;;;12.90;99.90;;;;;;10292734;28;20050;-58
2022/05/21 05:01:44;;;;;;;0.77;0.40;;;13.00;99.90;;;;;;10293358;28;20572;-59
2022/05/21 05:06:46;;;;;;;5.68;0.52;;;13.10;99.90;;;;;;10290464;28;20047;-59
2022/05/21 05:11:49;;;;;;;1.13;0.50;;;13.30;99.90;;;;;;10288986;28;20054;-59
2022/05/21 05:16:51;;;;;;;3.25;0.50;;;13.30;99.90;;;;;;10291552;28;20042;-58
2022/05/21 05:21:52;;;;;;;1.63;0.40;;;13.50;99.90;;;;;;10287999;28;20406;-58
2022/05/21 05:26:54;;;;;;;3.70;0.60;;;13.50;99.90;;;;;;10288203;28;20050;-58
2022/05/21 05:31:56;;;;;;;0.43;0.30;;;13.60;99.90;;;;;;10291050;28;20054;-59
2022/05/21 05:36:58;;;;;;;0.68;0.35;;;13.70;99.90;;;;;;10288980;28;20058;-59
2022/05/21 05:42:04;;;;;;;0.80;0.32;;;13.70;99.90;;;;;;10285102;28;20612;-60
2022/05/21 05:47:06;;;;;;;0.63;0.20;;;13.80;99.90;;;;;;10287910;28;20039;-61
2022/05/21 05:52:08;;;;;;;0.25;0.20;;;13.70;99.90;;;;;;10293148;28;20050;-61
2022/05/21 05:57:11;;;;;;;0.45;0.20;;;13.70;99.90;;;;;;10291998;28;20112;-61
2022/05/21 06:07:34;;;;;;;1.48;0.30;;;13.80;99.90;;;;;;10292328;28;20567;-60
2022/05/21 06:12:35;;;;;;;4.05;0.40;;;13.90;99.90;;;;;;10285169;28;20042;-61
2022/05/21 06:17:39;;;;;;;2.10;0.30;;;14.00;99.90;;;;;;10284963;28;20054;-61
2022/05/21 06:22:42;;;;;;;1.35;0.25;;;14.10;99.90;;;;;;10291610;28;20050;-61
2022/05/21 06:27:49;;;;;;;1.60;0.40;;;14.30;99.90;;;;;;10289064;28;20058;-60
2022/05/21 06:32:51;;;;;;;;;;;14.40;99.90;;;;;;10291112;28;20058;-62
2022/05/21 06:37:52;;;;;;;3.17;0.20;;;14.30;99.90;;;;;;10285083;28;19926;-61
2022/05/21 06:42:54;;;;;;;0.30;0.20;;;14.40;99.90;;;;;;10290843;28;20114;-62
2022/05/21 06:48:01;;;;;;;5.88;0.20;;;14.60;99.90;;;;;;10290652;28;20051;-62
2022/05/21 06:53:02;;;;;;;1.10;0.30;;;14.70;99.90;;;;;;10287949;28;20116;-62
2022/05/21 06:58:04;;;;;;;0.45;0.20;;;14.80;99.90;;;;;;10291232;28;20054;-61
2022/05/21 07:03:06;;;;;;;1.95;0.28;;;15.00;99.90;;;;;;10299120;28;20047;-61
2022/05/21 07:08:20;;;;;;;0.88;0.20;;;15.10;99.10;;;;;;10293382;28;20065;-62
2022/05/21 07:13:25;;;;;;;0.25;0.13;;;15.10;97.70;;;;;;10293913;28;20113;-62
2022/05/21 07:18:27;;;;;;;2.22;0.30;;;15.30;98.10;;;;;;10301023;28;20472;-61
2022/05/21 07:23:29;;;;;;;0.73;0.20;;;15.40;97.90;;;;;;10296912;28;20512;-62
2022/05/21 07:28:31;;;;;;;2.40;0.73;;;15.60;97.00;;;;;;10300590;28;20444;-62
2022/05/21 07:33:32;;;;;;;2.65;0.20;;;15.80;95.00;;;;;;10294613;28;20062;-62
2022/05/21 07:38:34;;;;;;;0.55;0.15;;;16.00;95.80;;;;;;10296274;28;20061;-62
2022/05/21 07:43:36;;;;;;;1.00;0.20;;;15.90;94.00;;;;;;10292609;28;20053;-62
2022/05/21 07:48:38;;;;;;;0.50;0.10;;;15.70;93.80;;;;;;10292982;28;20149;-63
2022/05/21 07:53:42;;;;;;;2.88;0.15;;;15.80;92.90;;;;;;10293250;28;20057;-65
2022/05/21 07:58:50;;;;;;;1.30;0.10;;;15.90;92.90;;;;;;10293822;28;20528;-65
2022/05/21 08:03:52;;;;;;;0.82;0.30;;;16.00;93.30;;;;;;10292559;28;20051;-65
2022/05/21 08:08:54;;;;;;;1.33;0.28;;;16.10;91.70;;;;;;10289940;28;20051;-66
2022/05/21 08:13:56;;;;;;;1.50;0.22;;;16.30;91.60;;;;;;10292025;28;20137;-66
2022/05/21 08:18:58;;;;;;;1.48;0.20;;;16.40;90.80;;;;;;10291449;28;23643;-64
2022/05/21 08:29:20;;;;;;;1.08;0.43;;;16.70;89.10;;;;;;10295647;28;20042;-64
2022/05/21 08:34:23;;;;;;;0.32;0.10;;;16.80;88.50;;;;;;10295995;28;20051;-61
2022/05/21 08:39:25;;;;;;;2.35;0.20;;;16.40;86.70;;;;;;10295187;28;20054;-62
2022/05/21 08:44:39;;;;;;;1.33;0.20;;;16.70;89.50;;;;;;10296939;28;20050;-62
2022/05/21 08:50:09;;;;;;;0.93;0.10;;;16.70;88.50;;;;;;10295629;28;20086;-61
2022/05/21 08:55:18;;;;;;;0.50;0.20;;;16.70;87.20;;;;;;10294328;28;20054;-61
2022/05/21 09:00:25;;;;;;;2.55;0.25;;;16.80;86.30;;;;;;10295645;28;20104;-61
2022/05/21 09:05:27;;;;;;;;;;;17.10;87.60;;;;;;10272328;28;20468;-58
2022/05/21 09:10:56;;;;;;;2.28;0.20;;;17.20;84.40;;;;;;10294043;28;19937;-58
2022/05/21 09:21:24;;;;;;;3.70;0.30;;;17.70;84.30;;;;;;10286734;28;20537;-58
2022/05/21 09:26:30;;;;;;;0.93;0.08;;;17.70;83.60;;;;;;10294009;28;20087;-58
2022/05/21 09:31:32;;;;;;;0.73;0.35;;;17.70;83.70;;;;;;10290450;28;20124;-57
2022/05/21 09:36:35;;;;;;;4.15;0.20;;;17.60;83.50;;;;;;10290085;28;20069;-59
2022/05/21 09:41:37;;;;;;;2.03;0.20;;;17.40;82.70;;;;;;10293039;28;20069;-60
2022/05/21 09:46:40;;;;;;;2.95;0.10;;;17.60;78.00;;;;;;10283919;28;20043;-59
2022/05/21 09:51:53;;;;;;;1.67;0.32;;;17.70;78.50;;;;;;10292926;28;20178;-60
2022/05/21 09:56:57;;;;;;;1.90;0.10;;;17.90;77.00;;;;;;10289074;28;20055;-59
2022/05/21 10:02:15;;;;;;;2.00;0.20;;;18.10;78.30;;;;;;10292537;28;20058;-60
2022/05/21 10:12:56;;;;;;;0.30;0.15;;;18.30;74.10;;;;;;10290529;28;20440;-59
2022/05/21 10:18:17;;;;;;;1.88;0.10;;;18.50;71.50;;;;;;10287320;28;20055;-60
2022/05/21 10:23:39;;;;;;;3.00;0.32;;;18.80;70.50;;;;;;10287255;28;20051;-60
2022/05/21 10:28:55;;;;;;;1.15;0.10;;;18.90;70.60;;;;;;10287007;28;20300;-60
2022/05/21 10:34:22;;;;;;;0.43;0.10;;;19.10;70.80;;;;;;10284490;28;20137;-60
2022/05/21 10:39:46;;;;;;;5.33;0.10;;;19.00;68.70;;;;;;10288516;28;20038;-59
2022/05/21 10:45:16;;;;;;;0.47;0.10;;;18.80;69.00;;;;;;10284003;28;20343;-60
2022/05/21 10:50:58;;;;;;;0.60;0.20;;;18.70;64.90;;;;;;10280755;28;20461;-59
2022/05/21 10:56:28;;;;;;;0.20;0.10;;;18.80;67.90;;;;;;10282998;28;20050;-63
2022/05/21 11:01:54;;;;;;;1.95;0.20;;;19.20;65.90;;;;;;10283122;28;20046;-60
2022/05/21 11:07:22;;;;;;;0.38;0.13;;;19.40;65.30;;;;;;10284215;28;20055;-60
2022/05/21 11:12:35;;;;;;;0.57;0.13;;;19.50;64.70;;;;;;10281983;28;20050;-59
2022/05/21 11:17:51;;;;;;;1.00;0.10;;;19.70;65.90;;;;;;10286163;28;20050;-59
2022/05/21 11:22:59;;;;;;;;;;;19.50;65.90;;;;;;10292806;28;20065;-60
2022/05/21 11:28:11;;;;;;;1.05;0.10;;;19.40;66.50;;;;;;10284098;28;19933;-60
2022/05/21 11:38:50;;;;;;;1.35;0.10;;;19.50;62.70;;;;;;10288674;28;20050;-60
2022/05/21 11:49:48;;;;;;;1.65;0.10;;;19.20;64.10;;;;;;10295967;28;20061;-60
2022/05/21 11:54:50;;;;;;;2.78;0.20;;;19.70;65.10;;;;;;10291082;28;20105;-60
2022/05/21 11:59:53;;;;;;;0.20;0.10;;;19.80;63.10;;;;;;10297406;28;20062;-61
2022/05/21 12:04:59;;;;;;;0.30;0.10;;;20.00;63.80;;;;;;10295284;28;20042;-61
2022/05/21 12:10:08;;;;;;;1.80;0.20;;;19.90;61.70;;;;;;10290960;28;20046;-60
2022/05/21 12:15:19;;;;;;;0.30;0.30;;;19.80;63.70;;;;;;10288910;28;20058;-60
2022/05/21 12:20:46;;;;;;;0.93;0.20;;;20.30;62.70;;;;;;10294451;28;20047;-60
2022/05/21 12:25:58;;;;;;;0.73;0.10;;;20.50;62.20;;;;;;10285363;28;20105;-60
2022/05/21 12:31:05;;;;;;;3.38;0.20;;;20.30;62.30;;;;;;10295730;28;20042;-60
2022/05/21 12:36:40;;;;;;;0.43;0.13;;;20.60;62.40;;;;;;10286977;28;20066;-60
2022/05/21 12:41:49;;;;;;;2.38;0.63;;;20.00;62.40;;;;;;10291292;28;20049;-60
2022/05/21 12:46:52;;;;;;;1.85;0.10;;;20.30;61.90;;;;;;10294674;28;20046;-60
2022/05/21 12:51:53;;;;;;;2.42;0.50;;;20.40;62.20;;;;;;10290800;28;20097;-60
2022/05/21 12:56:56;;;;;;;1.10;0.15;;;20.20;62.70;;;;;;10292508;28;20050;-64
2022/05/21 13:02:02;;;;;;;1.55;0.10;;;20.20;63.40;;;;;;10288850;28;20109;-60
2022/05/21 13:07:34;;;;;;;1.90;0.20;;;20.60;61.70;;;;;;10291852;28;20042;-60
2022/05/21 13:12:40;;;;;;;1.60;0.10;;;20.80;60.50;;;;;;10289345;28;20060;-60
2022/05/21 13:18:02;;;;;;;0.47;0.00;;;20.70;61.00;;;;;;10288694;28;20461;-60
2022/05/21 13:23:22;;;;;;;4.25;0.20;;;20.70;60.60;;;;;;10287948;28;20054;-61
2022/05/21 13:28:25;;;;;;;1.67;0.20;;;20.50;62.00;;;;;;10289605;28;20055;-60
2022/05/21 13:33:44;;;;;;;3.38;0.10;;;20.50;62.00;;;;;;10292211;28;20050;-60
2022/05/21 13:38:51;;;;;;;0.55;0.20;;;20.00;63.00;;;;;;10294225;28;20448;-60
2022/05/21 13:43:54;;;;;;;1.73;0.10;;;20.00;62.80;;;;;;10299818;28;20059;-61
2022/05/21 13:48:59;;;;;;;1.90;0.20;;;19.60;63.50;;;;;;10293009;28;20058;-60
2022/05/21 13:54:01;;;;;;;1.55;0.10;;;20.00;64.40;;;;;;10288027;28;20108;-60
2022/05/21 13:59:09;;;;;;;0.10;0.10;;;20.10;63.70;;;;;;10284128;28;20074;-60
2022/05/21 14:04:28;;;;;;;2.80;0.43;;;20.60;61.10;;;;;;10291169;28;20080;-60
2022/05/21 14:09:33;;;;;;;2.05;0.20;;;21.20;60.80;;;;;;10286506;28;20061;-60
2022/05/21 14:14:41;;;;;;;0.80;0.10;;;21.50;58.70;;;;;;10284100;28;20058;-60
2022/05/21 14:20:18;;;;;;;0.98;0.10;;;22.50;58.50;;;;;;10289855;28;20059;-60
2022/05/21 14:25:33;;;;;;;;;;;22.70;55.70;;;;;;10288619;28;20053;-60
2022/05/21 14:30:42;;;;;;;0.85;0.10;;;22.00;53.10;;;;;;10286748;28;19973;-60
2022/05/21 14:35:46;;;;;;;0.98;0.10;;;21.80;55.30;;;;;;10287044;28;20050;-60
2022/05/21 14:41:05;;;;;;;1.02;0.10;;;22.30;54.80;;;;;;10285996;28;20572;-60
2022/05/21 14:47:51;;;;;;;3.88;0.10;;;22.40;53.30;;;;;;10297632;28;20109;-60
2022/05/21 14:56:50;;;;;;;2.35;0.25;;;22.50;51.60;;;;;;10286998;28;20058;-60
2022/05/21 15:01:52;;;;;;;0.70;0.10;;;22.00;52.00;;;;;;10285597;28;20728;-60
2022/05/21 15:06:54;;;;;;;0.60;0.20;;;21.90;55.10;;;;;;10281330;28;20054;-60
2022/05/21 15:11:56;;;;;;;2.80;0.10;;;22.20;53.60;;;;;;10283663;28;20105;-60
2022/05/21 15:16:58;;;;;;;0.75;0.20;;;21.60;55.30;;;;;;10296974;28;20494;-60
2022/05/21 15:22:00;;;;;;;2.92;0.20;;;21.30;55.30;;;;;;10295812;28;20125;-60
2022/05/21 15:27:02;;;;;;;0.77;0.10;;;21.10;55.20;;;;;;10289181;28;20418;-60
2022/05/21 15:32:05;;;;;;;0.65;0.10;;;21.10;55.30;;;;;;10297806;28;20046;-59
2022/05/21 15:37:09;;;;;;;0.63;0.20;;;21.20;56.30;;;;;;10295662;28;20054;-60
2022/05/21 15:42:11;;;;;;;1.42;0.20;;;21.10;55.30;;;;;;10298735;28;20053;-59
2022/05/21 15:47:13;;;;;;;2.47;0.20;;;21.50;56.30;;;;;;10296382;28;20042;-60
2022/05/21 15:52:25;;;;;;;4.72;0.20;;;21.80;55.30;;;;;;10293554;28;20046;-60
2022/05/21 15:57:26;;;;;;;2.15;0.20;;;21.60;54.40;;;;;;10293274;28;20089;-60
2022/05/21 16:02:31;;;;;;;4.30;0.20;;;21.40;55.20;;;;;;10289245;28;20544;-60
2022/05/21 16:07:33;;;;;;;2.65;0.20;;;21.30;56.40;;;;;;10291628;28;20051;-60
2022/05/21 16:12:35;;;;;;;0.98;0.10;;;21.90;55.50;;;;;;10293547;28;20080;-60
2022/05/21 16:17:38;;;;;;;1.08;0.20;;;22.30;53.70;;;;;;10291716;28;20050;-60
2022/05/21 16:22:40;;;;;;;0.22;0.00;;;22.70;53.20;;;;;;10290261;28;20057;-60
2022/05/21 16:27:42;;;;;;;1.58;0.10;;;22.20;54.20;;;;;;10295823;28;20087;-60
2022/05/21 16:32:44;;;;;;;0.57;0.10;;;22.20;54.60;;;;;;10295098;28;20116;-60
2022/05/21 16:37:45;;;;;;;1.95;0.40;;;22.10;54.20;;;;;;10293727;28;20505;-60
2022/05/21 16:42:47;;;;;;;0.88;0.20;;;22.20;54.30;;;;;;10293168;28;20878;-60
2022/05/21 16:47:50;;;;;;;3.80;0.30;;;22.00;55.20;;;;;;10292199;28;20061;-60
2022/05/21 16:52:52;;;;;;;3.35;0.10;;;21.90;54.50;;;;;;10290682;28;20069;-60
2022/05/21 16:58:00;;;;;;;3.13;0.20;;;21.60;54.10;;;;;;10287978;28;20758;-60
2022/05/21 17:03:02;;;;;;;1.05;0.30;;;21.70;57.00;;;;;;10293491;28;20046;-60
2022/05/21 17:08:04;;;;;;;1.52;0.45;;;21.60;58.30;;;;;;10292399;28;20437;-60
2022/05/21 17:13:06;;;;;;;0.95;0.30;;;21.70;59.30;;;;;;10297852;28;20038;-60
2022/05/21 17:18:08;;;;;;;0.70;0.20;;;21.70;58.90;;;;;;10294191;28;20489;-60
2022/05/21 17:23:10;;;;;;;1.80;0.45;;;21.60;58.20;;;;;;10290136;28;20053;-60
2022/05/21 17:33:32;;;;;;;0.63;0.20;;;22.50;57.50;;;;;;10285866;28;20055;-60
2022/05/21 17:38:42;;;;;;;0.90;0.20;;;23.10;55.50;;;;;;10291081;28;20050;-60
2022/05/21 17:43:44;;;;;;;1.20;0.40;;;23.20;56.10;;;;;;10284715;28;20094;-59
2022/05/21 17:48:46;;;;;;;0.25;0.17;;;22.80;57.20;;;;;;10292780;28;20409;-59
2022/05/21 17:53:48;;;;;;;0.50;0.10;;;22.50;56.30;;;;;;10294902;28;20455;-60
2022/05/21 17:58:50;;;;;;;1.33;0.50;;;22.20;59.20;;;;;;10295168;28;20053;-60
2022/05/21 18:03:52;;;;;;;1.20;0.20;;;22.00;60.60;;;;;;10294009;28;20057;-59
2022/05/21 18:08:56;;;;;;;0.93;0.30;;;21.80;61.70;;;;;;10288423;28;20051;-61
2022/05/21 18:13:57;;;;;;;2.03;0.40;;;21.40;62.40;;;;;;10285949;28;20101;-60
2022/05/21 18:24:20;;;;;;;0.60;0.20;;;21.00;63.30;;;;;;10288167;28;20685;-60
2022/05/21 18:29:21;;;;;;;1.20;0.10;;;20.70;65.80;;;;;;10290770;28;20109;-60
2022/05/21 18:34:23;;;;;;;1.33;0.30;;;20.50;66.40;;;;;;10289384;28;20058;-60
2022/05/21 18:39:25;;;;;;;2.83;0.30;;;20.20;68.00;;;;;;10289326;28;20074;-60
2022/05/21 18:44:27;;;;;;;1.58;0.40;;;20.10;69.30;;;;;;10287681;28;20050;-58
2022/05/21 18:49:28;;;;;;;1.55;0.40;;;19.90;69.40;;;;;;10287791;28;20050;-58
2022/05/21 18:54:30;;;;;;;1.05;0.40;;;19.70;70.00;;;;;;10289122;28;20658;-58
2022/05/21 18:59:32;;;;;;;1.35;0.40;;;19.50;69.80;;;;;;10294700;28;20117;-58
2022/05/21 19:04:35;;;;;;;3.22;0.30;;;19.30;70.80;;;;;;10298207;28;20042;-62
2022/05/21 19:09:37;;;;;;;1.10;0.60;;;19.10;72.50;;;;;;10296403;28;20042;-60
2022/05/21 19:14:39;;;;;;;2.13;0.50;;;18.90;74.60;;;;;;10295144;28;20046;-60
2022/05/21 19:19:42;;;;;;;2.33;0.52;;;18.60;75.40;;;;;;10293902;28;20086;-60
2022/05/21 19:24:43;;;;;;;3.30;1.20;;;18.40;76.70;;;;;;10293132;28;20062;-60
2022/05/21 19:29:45;;;;;;;4.05;1.30;;;18.30;77.60;;;;;;10291890;28;20049;-59
2022/05/21 19:34:47;;;;;;;3.20;0.65;;;18.00;78.50;;;;;;10309056;28;20050;-60
2022/05/21 19:45:10;;;;;;;2.47;0.60;;;17.60;81.40;;;;;;10295535;28;20054;-60
2022/05/21 19:50:12;;;;;;;3.17;0.68;;;17.50;84.70;;;;;;10295180;28;20054;-59
2022/05/21 19:55:13;;;;;;;3.30;0.73;;;17.40;87.70;;;;;;10294949;28;20551;-59
2022/05/21 20:00:19;;;;;;;3.83;0.70;;;17.30;91.00;;;;;;10297030;28;20554;-57
2022/05/21 20:05:22;;;;;;;2.47;0.77;;;17.30;91.90;;;;;;10292021;28;20430;-58
2022/05/21 20:10:24;;;;;;;2.40;0.80;;;17.20;94.10;;;;;;10295228;28;20802;-58
2022/05/21 20:15:25;;;;;;;5.85;1.10;;;17.20;94.30;;;;;;10295987;28;20046;-58
2022/05/21 20:20:28;;;;;;;5.50;1.33;;;17.10;95.90;;;;;;10291620;28;20038;-58
2022/05/21 20:25:29;;;;;;;3.33;1.00;;;17.10;97.70;;;;;;10299364;28;20100;-57
2022/05/21 20:30:31;;;;;;;5.82;1.17;;;17.00;98.10;;;;;;10293293;28;20050;-57
2022/05/21 20:35:35;;;;;;;3.22;0.82;;;17.00;97.60;;;;;;10291125;28;20406;-58
2022/05/21 20:40:37;;;;;;;3.92;1.17;;;16.90;98.90;;;;;;10294042;28;20050;-58
2022/05/21 20:45:39;;;;;;;7.00;1.05;;;16.80;99.90;;;;;;10292969;28;20057;-58
2022/05/21 20:50:41;;;;;;;2.25;0.50;;;16.70;99.90;;;;;;10287563;28;20073;-58
2022/05/21 20:55:43;;;;;;;2.55;1.02;;;16.50;99.90;;;;;;10288229;28;20059;-57
2022/05/21 21:00:45;;;;;;;1.45;0.57;;;16.40;99.90;;;;;;10289830;28;20046;-57
2022/05/21 21:05:47;;;;;;;3.80;0.98;;;16.20;99.90;;;;;;10290093;28;20043;-58
2022/05/21 21:10:50;;;;;;;3.55;2.17;;;16.10;99.90;;;;;;10292633;28;20062;-58
2022/05/21 21:15:52;;;;;;;8.77;3.80;;;16.00;99.90;;;;;;10304095;28;20051;-58
2022/05/21 21:20:53;;;;;;;7.88;3.75;;;15.80;99.90;;;;;;10292149;28;20058;-59
2022/05/21 21:25:55;;;;;;;8.15;3.90;;;15.60;99.90;;;;;;10290846;28;20677;-59
2022/05/21 21:30:57;;;;;;;6.15;2.65;;;15.50;99.90;;;;;;10291050;28;20070;-59
2022/05/21 21:36:00;;;;;;;6.80;2.42;;;15.40;99.90;;;;;;10289205;28;20129;-59
2022/05/21 21:41:01;;;;;;;5.75;2.50;;;15.40;99.90;;;;;;10292863;28;20108;-59
2022/05/21 21:46:03;;;;;;;4.05;2.40;;;15.30;99.90;;;;;;10284493;28;20062;-59
2022/05/21 21:51:07;;;;;;;6.20;2.92;;;15.10;99.90;;;;;;10287777;28;20101;-59
2022/05/21 21:56:09;;;;;;;9.10;2.58;;;15.00;99.90;;;;;;10290520;28;20113;-59
2022/05/21 22:01:43;;;;;;;4.35;1.73;;;15.00;99.90;;;;;;10289364;28;20105;-59
2022/05/21 22:06:50;;;;;;;8.40;2.25;;;14.90;99.90;;;;;;10285876;28;20052;-59
2022/05/21 22:11:52;;;;;;;3.05;1.85;;;14.70;99.90;;;;;;10285500;28;20069;-58
2022/05/21 22:16:54;;;;;;;7.72;1.77;;;14.70;99.90;;;;;;10289819;28;20046;-59
2022/05/21 22:21:57;;;;;;;7.72;1.60;;;14.60;99.90;;;;;;10289814;28;20049;-58
2022/05/21 22:26:59;;;;;;;6.07;1.10;;;14.50;99.90;;;;;;10320710;23;20050;-86
2022/05/21 22:32:01;;;;;;;3.03;1.20;;;14.50;99.90;;;;;;10329808;23;20038;-58
2022/05/21 22:37:03;;;;;;;3.20;1.25;;;14.40;99.90;;;;;;10322478;28;20488;-58
2022/05/21 22:42:05;;;;;;;5.28;1.33;;;14.30;99.90;;;;;;10323549;28;20104;-59
2022/05/21 22:47:07;;;;;;;5.28;1.42;;;14.10;99.90;;;;;;10327240;28;20047;-59
2022/05/21 22:52:08;;;;;;;3.60;1.23;;;14.00;99.90;;;;;;10318513;28;20492;-58
2022/05/21 22:57:10;;;;;;;6.35;1.50;;;14.00;99.90;;;;;;10322645;28;20115;-58
2022/05/21 23:02:12;;;;;;;2.50;1.80;;;13.90;99.90;;;;;;10315419;28;20050;-58
2022/05/21 23:07:14;;;;;;;3.92;1.33;;;13.70;99.90;;;;;;10320703;28;20053;-58
2022/05/21 23:12:15;;;;;;;2.88;1.20;;;13.70;99.90;;;;;;10317578;28;20135;-59
2022/05/21 23:22:43;;;;;;;1.48;0.93;;;13.60;99.90;;;;;;10318362;28;20096;-59
2022/05/21 23:27:45;;;;;;;2.35;0.75;;;13.50;99.90;;;;;;10319988;28;20084;-59
2022/05/21 23:32:47;;;;;;;2.67;0.88;;;13.40;99.90;;;;;;10315898;28;20064;-58
2022/05/21 23:37:48;;;;;;;4.25;1.10;;;13.30;99.90;;;;;;10318019;28;20042;-59
2022/05/21 23:42:50;;;;;;;6.50;1.08;;;13.30;99.90;;;;;;10329112;28;20054;-59
2022/05/21 23:47:52;;;;;;;3.67;0.80;;;13.30;99.90;;;;;;10332640;28;20053;-59
2022/05/21 23:52:54;;;;;;;2.13;0.80;;;13.10;99.90;;;;;;10322715;28;20050;-59
2022/05/21 23:57:56;;;;;;;4.10;0.70;;;13.00;99.90;;;;;;10326638;28;20042;-59
